createdAt,value
2022-12-31T00:01:28.680Z,82.53
2022-12-31T00:04:01.154Z,82.64
2022-12-31T00:06:35.661Z,82.22
2022-12-31T00:09:09.069Z,82.45
2022-12-31T00:11:43.070Z,82.83
2022-12-31T00:14:15.641Z,82.79
2022-12-31T00:16:48.275Z,82.94
2022-12-31T00:19:20.662Z,82.52
2022-12-31T00:21:53.165Z,82.96
2022-12-31T00:24:25.522Z,82.23
2022-12-31T00:26:59.384Z,82.58
2022-12-31T00:29:31.802Z,82.71
2022-12-31T00:32:04.447Z,82.75
2022-12-31T00:34:36.921Z,82.84
2022-12-31T00:37:09.424Z,82.84
2022-12-31T00:39:41.843Z,82.50
2022-12-31T00:42:15.739Z,82.93
2022-12-31T00:44:48.089Z,82.63
2022-12-31T00:47:20.633Z,82.64
2022-12-31T00:49:53.666Z,83.16
2022-12-31T00:52:26.130Z,83.09
2022-12-31T00:54:58.626Z,82.79
2022-12-31T00:57:32.522Z,82.74
2022-12-31T01:00:07.697Z,82.84
2022-12-31T01:02:40.287Z,82.49
2022-12-31T01:05:12.917Z,82.93
2022-12-31T01:07:45.517Z,82.71
2022-12-31T01:10:37.933Z,82.89
2022-12-31T01:13:11.785Z,82.67
2022-12-31T01:15:44.478Z,82.65
2022-12-31T01:18:17.050Z,82.49
2022-12-31T01:20:49.490Z,82.45
2022-12-31T01:23:22.175Z,82.78
2022-12-31T01:25:54.554Z,82.65
2022-12-31T01:28:28.679Z,82.79
2022-12-31T01:31:04.878Z,83.03
2022-12-31T01:33:37.710Z,83.16
2022-12-31T01:36:13.309Z,82.88
2022-12-31T01:38:45.824Z,83.28
2022-12-31T01:41:19.679Z,83.69
2022-12-31T01:43:55.829Z,83.19
2022-12-31T01:46:36.140Z,83.52
2022-12-31T01:49:14.195Z,83.05
2022-12-31T01:51:50.064Z,83.24
2022-12-31T01:54:24.828Z,83.49
2022-12-31T01:56:58.077Z,83.46
2022-12-31T01:59:33.127Z,83.34
2022-12-31T02:02:06.202Z,83.50
2022-12-31T02:04:38.991Z,83.63
2022-12-31T02:07:12.089Z,83.32
2022-12-31T02:09:44.937Z,83.23
2022-12-31T02:12:17.421Z,83.20
2022-12-31T02:14:54.493Z,83.12
2022-12-31T02:17:34.829Z,83.13
2022-12-31T02:20:39.515Z,83.22
2022-12-31T02:23:53.422Z,83.42
2022-12-31T02:26:41.924Z,83.53
2022-12-31T02:29:49.884Z,83.70
2022-12-31T02:32:36.570Z,83.41
2022-12-31T02:35:13.500Z,83.16
2022-12-31T02:37:50.697Z,83.25
2022-12-31T02:40:23.584Z,83.16
2022-12-31T02:42:56.301Z,83.14
2022-12-31T02:45:34.567Z,83.81
2022-12-31T02:48:37.902Z,83.15
2022-12-31T02:51:29.044Z,83.76
2022-12-31T02:54:26.586Z,83.79
2022-12-31T02:57:10.395Z,83.68
2022-12-31T03:00:09.968Z,83.11
2022-12-31T03:02:45.786Z,83.09
2022-12-31T03:05:23.186Z,83.48
2022-12-31T03:07:55.711Z,83.44
2022-12-31T03:10:28.337Z,83.20
2022-12-31T03:13:01.109Z,83.76
2022-12-31T03:15:34.516Z,84.25
2022-12-31T03:18:09.007Z,83.87
2022-12-31T03:21:05.251Z,83.64
2022-12-31T03:23:40.755Z,83.38
2022-12-31T03:26:13.483Z,83.39
2022-12-31T03:28:48.844Z,83.05
2022-12-31T03:31:21.454Z,83.95
2022-12-31T03:33:53.863Z,83.64
2022-12-31T03:36:27.809Z,83.35
2022-12-31T03:39:00.213Z,82.81
2022-12-31T03:41:32.743Z,83.36
2022-12-31T03:44:05.459Z,83.09
2022-12-31T03:46:37.955Z,83.23
2022-12-31T03:49:10.468Z,83.57
2022-12-31T03:51:44.389Z,83.04
2022-12-31T03:54:16.728Z,83.58
2022-12-31T03:56:49.666Z,83.10
2022-12-31T03:59:22.252Z,83.58
2022-12-31T04:01:54.985Z,83.67
2022-12-31T04:04:27.683Z,83.47
2022-12-31T04:07:01.581Z,83.78
2022-12-31T04:09:34.043Z,83.83
2022-12-31T04:12:07.217Z,84.00
2022-12-31T04:14:39.630Z,83.08
2022-12-31T04:17:12.146Z,83.95
2022-12-31T04:19:44.461Z,83.56
2022-12-31T04:22:18.663Z,83.88
2022-12-31T04:24:51.047Z,83.20
2022-12-31T04:27:23.541Z,83.14
2022-12-31T04:29:56.007Z,83.66
2022-12-31T04:32:29.623Z,83.25
2022-12-31T04:35:02.142Z,82.96
2022-12-31T04:37:36.870Z,83.65
2022-12-31T04:40:10.291Z,82.90
2022-12-31T04:42:42.867Z,83.42
2022-12-31T04:45:15.453Z,83.00
2022-12-31T04:47:48.330Z,82.94
2022-12-31T04:50:20.744Z,83.42
2022-12-31T04:52:54.565Z,83.03
2022-12-31T04:55:26.886Z,83.53
2022-12-31T04:57:59.397Z,82.87
2022-12-31T05:00:31.899Z,82.68
2022-12-31T05:03:04.466Z,83.20
2022-12-31T05:05:39.306Z,82.87
2022-12-31T05:08:14.206Z,83.01
2022-12-31T05:10:48.667Z,82.97
2022-12-31T05:13:21.228Z,82.84
2022-12-31T05:15:53.782Z,83.59
2022-12-31T05:18:27.390Z,82.92
2022-12-31T05:21:00.048Z,83.39
2022-12-31T05:23:34.440Z,83.06
2022-12-31T05:26:06.941Z,82.98
2022-12-31T05:28:39.460Z,82.85
2022-12-31T05:31:12.021Z,83.33
2022-12-31T05:33:44.541Z,83.09
2022-12-31T05:36:16.987Z,82.92
2022-12-31T05:38:50.890Z,83.45
2022-12-31T05:41:23.261Z,83.21
2022-12-31T05:43:55.844Z,83.08
2022-12-31T05:46:28.462Z,83.41
2022-12-31T05:49:00.996Z,83.09
2022-12-31T05:51:33.392Z,83.35
2022-12-31T05:54:07.377Z,83.62
2022-12-31T05:56:40.663Z,83.52
2022-12-31T05:59:13.186Z,83.33
2022-12-31T06:01:45.770Z,83.27
2022-12-31T06:04:18.453Z,82.99
2022-12-31T06:06:51.085Z,83.23
2022-12-31T06:09:25.154Z,83.05
2022-12-31T06:11:57.554Z,83.25
2022-12-31T06:14:40.769Z,83.11
2022-12-31T06:17:16.785Z,83.62
2022-12-31T06:19:49.470Z,83.89
2022-12-31T06:22:21.753Z,83.03
2022-12-31T06:24:55.668Z,83.61
2022-12-31T06:27:28.088Z,83.40
2022-12-31T06:30:00.716Z,83.49
2022-12-31T06:32:33.194Z,83.50
2022-12-31T06:35:07.079Z,83.13
2022-12-31T06:37:39.683Z,83.51
2022-12-31T06:40:14.015Z,83.56
2022-12-31T06:42:46.550Z,83.60
2022-12-31T06:45:19.202Z,83.38
2022-12-31T06:47:51.969Z,83.71
2022-12-31T06:50:24.544Z,83.22
2022-12-31T06:52:56.925Z,83.20
2022-12-31T06:55:31.887Z,83.10
2022-12-31T06:58:04.983Z,83.39
2022-12-31T07:00:37.905Z,83.26
2022-12-31T07:03:24.801Z,83.05
2022-12-31T07:06:02.366Z,83.55
2022-12-31T07:08:45.476Z,83.27
2022-12-31T07:11:23.841Z,83.32
2022-12-31T07:14:27.522Z,83.59
2022-12-31T07:17:08.803Z,83.58
2022-12-31T07:19:57.341Z,83.29
2022-12-31T07:22:30.985Z,83.62
2022-12-31T07:25:06.721Z,83.19
2022-12-31T07:28:02.900Z,82.84
2022-12-31T07:30:46.845Z,83.15
2022-12-31T07:33:38.572Z,83.41
2022-12-31T07:36:21.823Z,83.26
2022-12-31T07:39:01.866Z,83.26
2022-12-31T07:41:51.569Z,83.36
2022-12-31T07:44:50.277Z,83.97
2022-12-31T07:47:24.529Z,83.78
2022-12-31T07:49:58.198Z,83.38
2022-12-31T07:52:31.243Z,83.92
2022-12-31T07:55:03.873Z,84.10
2022-12-31T07:57:41.120Z,83.13
2022-12-31T08:00:16.211Z,83.80
2022-12-31T08:03:15.388Z,83.90
2022-12-31T08:05:52.590Z,83.42
2022-12-31T08:08:36.644Z,83.55
2022-12-31T08:11:15.983Z,84.11
2022-12-31T08:13:49.212Z,83.89
2022-12-31T08:16:23.845Z,84.22
2022-12-31T08:18:59.775Z,83.75
2022-12-31T08:21:43.823Z,83.59
2022-12-31T08:24:25.654Z,83.40
2022-12-31T08:27:09.103Z,83.92
2022-12-31T08:29:52.238Z,83.26
2022-12-31T08:32:32.070Z,83.67
2022-12-31T08:35:15.765Z,83.49
2022-12-31T08:37:54.599Z,83.62
2022-12-31T08:40:32.175Z,83.35
2022-12-31T08:43:28.312Z,84.03
2022-12-31T08:46:01.582Z,83.91
2022-12-31T08:48:40.581Z,84.00
2022-12-31T08:51:17.806Z,83.73
2022-12-31T08:53:51.217Z,83.67
2022-12-31T08:56:30.400Z,83.02
2022-12-31T08:59:20.030Z,83.36
2022-12-31T09:02:18.500Z,84.11
2022-12-31T09:05:01.613Z,83.19
2022-12-31T09:07:38.753Z,83.35
2022-12-31T09:10:19.675Z,83.56
2022-12-31T09:12:58.777Z,83.31
2022-12-31T09:15:38.084Z,83.11
2022-12-31T09:18:13.282Z,82.98
2022-12-31T09:20:47.877Z,83.50
2022-12-31T09:23:20.585Z,83.40
2022-12-31T09:26:01.143Z,83.30
2022-12-31T09:28:44.902Z,82.96
2022-12-31T09:31:22.005Z,83.56
2022-12-31T09:33:59.398Z,83.17
2022-12-31T09:36:39.704Z,83.10
2022-12-31T09:39:19.737Z,83.30
2022-12-31T09:42:14.859Z,82.93
2022-12-31T09:45:28.696Z,83.04
2022-12-31T09:48:44.112Z,83.38
2022-12-31T09:51:28.139Z,83.49
2022-12-31T09:54:16.424Z,83.58
2022-12-31T09:56:59.339Z,83.35
2022-12-31T09:59:41.263Z,83.43
2022-12-31T10:02:33.377Z,83.79
2022-12-31T10:05:28.992Z,83.40
2022-12-31T10:08:13.201Z,83.46
2022-12-31T10:10:53.921Z,83.81
2022-12-31T10:13:50.131Z,83.19
2022-12-31T10:16:42.275Z,83.70
2022-12-31T10:19:40.512Z,83.15
2022-12-31T10:22:41.777Z,83.32
2022-12-31T10:25:49.234Z,83.10
2022-12-31T10:28:39.791Z,83.09
2022-12-31T10:31:31.909Z,82.83
2022-12-31T10:34:15.019Z,82.37
2022-12-31T10:36:54.895Z,83.12
2022-12-31T10:39:39.025Z,83.85
2022-12-31T10:42:52.149Z,83.06
2022-12-31T10:46:13.359Z,83.21
2022-12-31T10:49:47.197Z,82.95
2022-12-31T10:52:56.672Z,82.64
2022-12-31T10:56:30.506Z,82.28
2022-12-31T10:59:38.284Z,83.09
2022-12-31T11:02:36.891Z,82.85
2022-12-31T11:05:44.606Z,82.35
2022-12-31T11:08:45.064Z,82.14
2022-12-31T11:11:26.919Z,83.18
2022-12-31T11:14:29.653Z,82.69
2022-12-31T11:17:31.029Z,82.55
2022-12-31T11:20:19.928Z,82.77
2022-12-31T11:23:01.888Z,82.75
2022-12-31T11:25:49.908Z,82.45
2022-12-31T11:28:42.342Z,82.65
2022-12-31T11:31:32.881Z,82.33
2022-12-31T11:34:24.282Z,82.33
2022-12-31T11:37:16.802Z,82.63
2022-12-31T11:39:59.313Z,82.53
2022-12-31T11:42:41.809Z,82.71
2022-12-31T11:45:22.936Z,82.47
2022-12-31T11:48:29.538Z,82.83
2022-12-31T11:51:10.601Z,82.29
2022-12-31T11:54:02.187Z,82.89
2022-12-31T11:56:37.895Z,82.46
2022-12-31T11:59:18.897Z,82.98
2022-12-31T12:01:58.946Z,82.74
2022-12-31T12:04:31.774Z,82.40
2022-12-31T12:07:12.907Z,82.16
2022-12-31T12:09:46.351Z,83.15
2022-12-31T12:12:18.992Z,82.27
2022-12-31T12:14:54.427Z,82.52
2022-12-31T12:17:32.615Z,82.76
2022-12-31T12:20:17.314Z,83.18
2022-12-31T12:22:54.034Z,83.02
2022-12-31T12:25:36.332Z,82.74
2022-12-31T12:28:19.189Z,82.77
2022-12-31T12:30:58.577Z,82.65
2022-12-31T12:33:42.155Z,83.04
2022-12-31T12:36:16.645Z,82.46
2022-12-31T12:39:01.688Z,82.43
2022-12-31T12:41:34.340Z,82.63
2022-12-31T12:44:09.076Z,82.57
2022-12-31T12:46:48.536Z,83.17
2022-12-31T12:49:24.403Z,82.79
2022-12-31T12:52:25.218Z,82.47
2022-12-31T12:55:16.032Z,82.50
2022-12-31T12:58:01.485Z,82.92
2022-12-31T13:00:44.082Z,82.39
2022-12-31T13:03:36.678Z,81.92
2022-12-31T13:06:30.195Z,82.69
2022-12-31T13:09:27.813Z,82.30
2022-12-31T13:12:13.503Z,82.62
2022-12-31T13:14:54.126Z,81.96
2022-12-31T13:17:47.041Z,82.41
2022-12-31T13:20:30.784Z,82.42
2022-12-31T13:23:14.349Z,82.18
2022-12-31T13:26:02.152Z,82.06
2022-12-31T13:28:40.660Z,82.69
2022-12-31T13:31:18.162Z,82.39
2022-12-31T13:33:56.040Z,82.45
2022-12-31T13:36:32.852Z,82.55
2022-12-31T13:39:12.774Z,82.07
2022-12-31T13:41:50.877Z,82.44
2022-12-31T13:44:31.304Z,82.08
2022-12-31T13:47:13.119Z,82.69
2022-12-31T13:49:51.796Z,81.61
2022-12-31T13:52:31.196Z,82.71
2022-12-31T13:55:11.645Z,82.86
2022-12-31T13:57:49.529Z,82.44
2022-12-31T14:00:26.731Z,82.55
2022-12-31T14:03:09.879Z,82.40
2022-12-31T14:05:52.181Z,82.12
2022-12-31T14:08:24.807Z,82.18
2022-12-31T14:11:07.041Z,82.16
2022-12-31T14:13:56.186Z,82.01
2022-12-31T14:16:43.891Z,82.17
2022-12-31T14:19:31.685Z,82.21
2022-12-31T14:22:14.092Z,81.80
2022-12-31T14:24:49.962Z,82.62
2022-12-31T14:27:27.695Z,82.33
2022-12-31T14:30:03.929Z,82.02
2022-12-31T14:32:58.668Z,82.35
2022-12-31T14:35:46.491Z,82.72
2022-12-31T14:38:28.147Z,82.25
2022-12-31T14:43:55.097Z,82.06
2022-12-31T14:46:37.193Z,82.31
2022-12-31T14:49:25.290Z,82.03
2022-12-31T14:52:08.371Z,82.39
2022-12-31T14:54:41.260Z,81.70
2022-12-31T14:57:24.489Z,82.50
2022-12-31T14:59:58.156Z,81.83
2022-12-31T15:02:33.255Z,82.29
2022-12-31T15:05:17.326Z,82.23
2022-12-31T15:08:22.235Z,82.35
2022-12-31T15:11:13.800Z,81.77
2022-12-31T15:14:01.078Z,81.67
2022-12-31T15:16:44.070Z,81.54
2022-12-31T15:19:47.117Z,81.81
2022-12-31T15:22:34.953Z,82.20
2022-12-31T15:25:22.236Z,82.25
2022-12-31T15:27:55.722Z,82.02
2022-12-31T15:30:35.573Z,81.61
2022-12-31T15:33:16.933Z,81.77
2022-12-31T15:35:52.717Z,81.76
2022-12-31T15:38:35.913Z,81.98
2022-12-31T15:41:28.271Z,82.39
2022-12-31T15:44:06.791Z,82.19
2022-12-31T15:46:41.381Z,81.69
2022-12-31T15:49:18.473Z,82.11
2022-12-31T15:51:56.326Z,82.11
2022-12-31T15:54:36.383Z,82.32
2022-12-31T15:57:16.337Z,82.35
2022-12-31T15:59:49.509Z,81.70
2022-12-31T16:02:25.912Z,81.80
2022-12-31T16:04:58.722Z,81.88
2022-12-31T16:07:32.223Z,81.78
2022-12-31T16:10:07.436Z,81.82
2022-12-31T16:12:44.568Z,82.09
2022-12-31T16:15:22.572Z,81.50
2022-12-31T16:18:00.397Z,82.04
2022-12-31T16:20:34.826Z,81.79
2022-12-31T16:23:20.522Z,82.23
2022-12-31T16:26:00.928Z,81.65
2022-12-31T16:28:34.822Z,81.64
2022-12-31T16:31:15.166Z,81.90
2022-12-31T16:33:47.765Z,81.48
2022-12-31T16:36:23.192Z,81.47
2022-12-31T16:39:28.223Z,81.77
2022-12-31T16:42:19.430Z,81.48
2022-12-31T16:44:53.641Z,81.96
2022-12-31T16:47:34.194Z,82.27
2022-12-31T16:50:14.610Z,82.05
2022-12-31T16:52:50.710Z,81.92
2022-12-31T16:55:25.268Z,81.85
2022-12-31T16:58:03.917Z,82.05
2022-12-31T17:00:37.603Z,82.12
2022-12-31T17:03:17.795Z,81.64
2022-12-31T17:06:12.742Z,81.83
2022-12-31T17:08:48.648Z,81.56
2022-12-31T17:11:28.738Z,81.74
2022-12-31T17:14:12.133Z,81.97
2022-12-31T17:17:02.796Z,81.44
2022-12-31T17:19:42.287Z,81.68
2022-12-31T17:22:31.640Z,82.07
2022-12-31T17:25:15.765Z,81.83
2022-12-31T17:27:54.291Z,81.85
2022-12-31T17:30:42.661Z,81.73
2022-12-31T17:33:30.301Z,81.77
2022-12-31T17:36:22.367Z,81.30
2022-12-31T17:38:54.921Z,81.38
2022-12-31T17:41:28.186Z,81.36
2022-12-31T17:44:00.678Z,81.89
2022-12-31T17:46:40.102Z,81.29
2022-12-31T17:49:16.044Z,81.64
2022-12-31T17:51:48.759Z,81.55
2022-12-31T17:54:21.106Z,81.19
2022-12-31T17:56:54.269Z,81.21
2022-12-31T17:59:33.655Z,81.75
2022-12-31T18:02:13.388Z,81.82
2022-12-31T18:04:46.164Z,81.43
2022-12-31T18:07:18.787Z,81.44
2022-12-31T18:09:51.178Z,81.39
2022-12-31T18:12:23.922Z,81.21
2022-12-31T18:14:56.385Z,81.38
2022-12-31T18:17:30.540Z,81.59
2022-12-31T18:20:05.373Z,81.72
2022-12-31T18:22:40.248Z,81.70
2022-12-31T18:25:16.515Z,81.66
2022-12-31T18:27:50.662Z,81.20
2022-12-31T18:30:23.558Z,81.64
2022-12-31T18:32:58.002Z,81.43
2022-12-31T18:36:07.171Z,81.35
2022-12-31T18:38:23.398Z,81.52
2022-12-31T18:43:32.054Z,81.54
2022-12-31T18:46:04.739Z,81.28
2022-12-31T18:48:41.567Z,81.60
2022-12-31T18:51:15.756Z,81.64
2022-12-31T18:53:48.429Z,81.43
2022-12-31T18:56:22.309Z,81.61
2022-12-31T18:58:55.377Z,81.64
2022-12-31T19:01:30.507Z,81.32
2022-12-31T19:04:11.548Z,81.43
2022-12-31T19:06:44.235Z,81.59
2022-12-31T19:09:43.262Z,81.72
2022-12-31T19:12:15.640Z,81.17
2022-12-31T19:14:48.414Z,81.01
2022-12-31T19:17:21.831Z,81.42
2022-12-31T19:19:56.583Z,81.36
2022-12-31T19:22:29.448Z,81.72
2022-12-31T19:25:02.058Z,81.28
2022-12-31T19:27:43.989Z,81.74
2022-12-31T19:30:30.299Z,81.36
2022-12-31T19:33:05.805Z,81.91
2022-12-31T19:35:41.780Z,81.18
2022-12-31T19:38:25.936Z,81.25
2022-12-31T19:41:03.051Z,81.59
2022-12-31T19:43:35.595Z,81.89
2022-12-31T19:46:16.845Z,81.56
2022-12-31T19:48:58.854Z,81.62
2022-12-31T19:51:54.402Z,81.55
2022-12-31T19:55:09.310Z,81.96
2022-12-31T19:57:53.747Z,81.72
2022-12-31T20:00:26.833Z,81.81
2022-12-31T20:03:18.255Z,81.38
2022-12-31T20:06:19.200Z,81.76
2022-12-31T20:09:08.305Z,81.67
2022-12-31T20:11:41.241Z,81.56
2022-12-31T20:14:13.797Z,82.04
2022-12-31T20:16:54.130Z,81.52
2022-12-31T20:19:31.599Z,81.91
2022-12-31T20:25:15.712Z,82.06
2022-12-31T20:28:02.093Z,81.61
2022-12-31T20:30:46.698Z,81.55
2022-12-31T20:33:19.535Z,81.30
2022-12-31T20:35:52.525Z,81.34
2022-12-31T20:38:25.121Z,81.54
2022-12-31T20:41:04.585Z,81.98
2022-12-31T20:43:37.745Z,81.64
2022-12-31T20:46:15.382Z,81.96
2022-12-31T20:48:49.810Z,81.98
2022-12-31T20:51:23.976Z,82.20
2022-12-31T20:53:58.141Z,82.13
2022-12-31T20:56:35.229Z,81.69
2022-12-31T20:59:09.079Z,81.79
2022-12-31T21:02:19.359Z,81.69
2022-12-31T21:04:34.465Z,81.91
2022-12-31T21:07:07.236Z,82.00
2022-12-31T21:09:39.765Z,81.60
2022-12-31T21:12:41.857Z,81.90
2022-12-31T21:15:14.626Z,82.51
2022-12-31T21:17:47.569Z,82.34
2022-12-31T21:20:20.106Z,82.08
2022-12-31T21:22:53.548Z,82.38
2022-12-31T21:25:26.197Z,82.33
2022-12-31T21:28:00.485Z,82.15
2022-12-31T21:30:33.038Z,82.23
2022-12-31T21:33:06.132Z,81.49
2022-12-31T21:35:47.046Z,82.08
2022-12-31T21:38:24.353Z,81.75
2022-12-31T21:41:02.418Z,82.00
2022-12-31T21:43:36.609Z,81.79
2022-12-31T21:46:10.533Z,82.24
2022-12-31T21:48:43.220Z,81.67
2022-12-31T21:51:17.045Z,82.22
2022-12-31T21:53:49.865Z,81.94
2022-12-31T21:56:22.991Z,81.82
2022-12-31T21:59:17.384Z,82.32
2022-12-31T22:02:08.622Z,82.43
2022-12-31T22:05:01.996Z,82.10
2022-12-31T22:07:35.714Z,82.03
2022-12-31T22:10:08.972Z,81.97
2022-12-31T22:12:41.506Z,82.34
2022-12-31T22:15:16.413Z,81.94
2022-12-31T22:17:49.012Z,82.80
2022-12-31T22:20:29.512Z,82.55
2022-12-31T22:23:02.045Z,82.37
2022-12-31T22:25:35.455Z,82.31
2022-12-31T22:31:02.543Z,82.18
2022-12-31T22:33:34.970Z,82.02
2022-12-31T22:36:11.195Z,82.30
2022-12-31T22:38:44.635Z,82.10
2022-12-31T22:41:19.428Z,82.30
2022-12-31T22:44:00.520Z,82.07
2022-12-31T22:46:37.950Z,82.76
2022-12-31T22:49:12.313Z,82.56
2022-12-31T22:51:56.484Z,82.56
2022-12-31T22:54:40.708Z,82.24
2022-12-31T22:57:17.908Z,81.75
2022-12-31T22:59:52.934Z,82.88
2022-12-31T23:02:27.200Z,82.05
2022-12-31T23:05:16.176Z,82.22
2022-12-31T23:07:49.292Z,82.23
2022-12-31T23:10:40.261Z,82.51
2022-12-31T23:13:31.128Z,82.93
2022-12-31T23:16:22.480Z,82.35
2022-12-31T23:19:15.175Z,82.11
2022-12-31T23:22:05.947Z,82.66
2022-12-31T23:24:39.050Z,82.19
2022-12-31T23:27:11.892Z,82.68
2022-12-31T23:29:47.448Z,82.14
2022-12-31T23:32:20.422Z,82.21
2022-12-31T23:34:56.107Z,82.54
2022-12-31T23:37:28.594Z,82.54
2022-12-31T23:40:01.157Z,82.74
2022-12-31T23:42:33.661Z,82.70
2022-12-31T23:45:07.407Z,82.24
2022-12-31T23:47:40.025Z,82.76
2022-12-31T23:50:14.226Z,82.79
2022-12-31T23:52:46.798Z,83.01
2022-12-31T23:55:19.800Z,82.51
2022-12-31T23:57:52.388Z,82.37
